Time;durP1;ratioP1;P1;durP2;ratioP2;P2;SDS_P1;SDS_P2;PMS_P1;PMS_P2;Temp;Humidity;BMP_temperature;BMP_pressure;BME280_temperature;BME280_humidity;BME280_pressure;Samples;Min_cycle;Max_cycle;Signal;HPM_P1;HPM_P2
2023/01/03 00:00:42;;;;;;;18.65;10.50;;;4.00;99.90;;;;;;5019414;28;20413;-84
2023/01/03 00:03:07;;;;;;;30.58;12.15;;;3.90;99.90;;;;;;5019077;28;20488;-84
2023/01/03 00:05:34;;;;;;;19.48;9.82;;;3.90;99.90;;;;;;5019274;28;20440;-84
2023/01/03 00:08:00;;;;;;;26.63;13.43;;;3.80;99.90;;;;;;5002937;28;20045;-84
2023/01/03 00:10:27;;;;;;;22.88;11.25;;;3.80;99.90;;;;;;5003198;28;20076;-84
2023/01/03 00:12:53;;;;;;;23.33;10.38;;;3.80;99.90;;;;;;5002797;28;20049;-84
2023/01/03 00:15:19;;;;;;;23.90;12.73;;;3.80;99.90;;;;;;5019107;28;20046;-84
2023/01/03 00:17:44;;;;;;;21.88;11.50;;;4.70;99.90;;;;;;5003228;28;20394;-84
2023/01/03 00:20:10;;;;;;;23.85;11.25;;;3.70;99.90;;;;;;5002657;28;20118;-84
2023/01/03 00:22:36;;;;;;;22.98;12.95;;;3.60;99.90;;;;;;5018682;28;20116;-84
2023/01/03 00:25:02;;;;;;;23.15;12.05;;;3.70;99.90;;;;;;5002442;28;20052;-84
2023/01/03 00:27:28;;;;;;;20.00;11.13;;;3.60;99.90;;;;;;5002492;28;20056;-84
2023/01/03 00:29:54;;;;;;;19.45;10.52;;;3.60;99.90;;;;;;5018450;28;20046;-84
2023/01/03 00:32:20;;;;;;;20.92;10.05;;;3.50;99.90;;;;;;5018627;28;20048;-84
2023/01/03 00:34:46;;;;;;;24.42;12.50;;;3.50;99.90;;;;;;5018487;28;20410;-84
2023/01/03 00:37:13;;;;;;;16.13;9.93;;;3.50;99.90;;;;;;5018954;28;20057;-84
2023/01/03 00:39:38;;;;;;;;;;;3.50;99.90;;;;;;5018954;28;20448;-85
2023/01/03 00:42:04;;;;;;;24.67;10.85;;;3.40;99.90;;;;;;5001910;28;19921;-84
2023/01/03 00:44:30;;;;;;;21.27;10.25;;;3.80;99.90;;;;;;5018233;28;20049;-84
2023/01/03 00:46:55;;;;;;;24.60;10.93;;;3.40;99.90;;;;;;5035887;28;20088;-84
2023/01/03 00:49:21;;;;;;;18.05;9.80;;;3.30;99.90;;;;;;5036362;28;20045;-84
2023/01/03 00:51:47;;;;;;;21.13;10.70;;;3.40;99.90;;;;;;5002283;28;20048;-84
2023/01/03 00:54:13;;;;;;;21.50;10.25;;;3.30;99.90;;;;;;5018229;28;20057;-84
2023/01/03 00:56:44;;;;;;;24.35;10.70;;;3.30;99.90;;;;;;5018246;28;20049;-84
2023/01/03 00:59:11;;;;;;;18.50;9.90;;;3.30;99.90;;;;;;5002251;28;20114;-84
2023/01/03 01:01:41;;;;;;;;;;;3.30;99.90;;;;;;5036699;28;20402;-84
2023/01/03 01:04:13;;;;;;;24.85;11.68;;;3.30;99.90;;;;;;5035572;28;20293;-84
2023/01/03 01:06:42;;;;;;;25.33;12.43;;;3.20;99.90;;;;;;5018248;28;20045;-84
2023/01/03 01:09:11;;;;;;;29.25;12.45;;;3.90;99.90;;;;;;5001302;28;20049;-84
2023/01/03 01:11:37;;;;;;;28.20;12.07;;;3.20;99.90;;;;;;5035540;28;20041;-84
2023/01/03 01:14:03;;;;;;;27.73;11.40;;;3.10;99.90;;;;;;5018073;28;20098;-84
2023/01/03 01:16:31;;;;;;;21.73;11.27;;;3.10;99.90;;;;;;5017813;28;20048;-84
2023/01/03 01:18:59;;;;;;;20.02;10.48;;;3.70;99.90;;;;;;5017946;28;20045;-84
2023/01/03 01:21:30;;;;;;;21.75;11.25;;;3.10;99.90;;;;;;5017754;28;20375;-84
2023/01/03 01:23:58;;;;;;;19.25;10.43;;;3.10;99.90;;;;;;5001411;28;20042;-85
2023/01/03 01:26:24;;;;;;;22.17;10.82;;;3.10;99.90;;;;;;5017653;28;20049;-84
2023/01/03 01:28:51;;;;;;;22.05;10.85;;;5.00;99.90;;;;;;5017272;28;20497;-84
2023/01/03 01:31:20;;;;;;;23.95;11.90;;;3.00;99.90;;;;;;5017306;28;20374;-84
2023/01/03 01:33:46;;;;;;;21.08;10.90;;;3.00;99.90;;;;;;5017076;28;20132;-84
2023/01/03 01:36:21;;;;;;;22.05;11.75;;;3.00;99.90;;;;;;5017300;28;20104;-85
2023/01/03 01:38:52;;;;;;;19.40;10.70;;;2.90;99.90;;;;;;5001331;28;20112;-84
2023/01/03 01:44:36;;;;;;;23.17;11.25;;;2.90;99.90;;;;;;5017742;28;20444;-84
2023/01/03 01:46:49;;;;;;;18.23;9.32;;;2.90;99.90;;;;;;5017272;28;20132;-84
2023/01/03 01:49:22;;;;;;;19.55;9.52;;;2.80;99.90;;;;;;5016943;28;20092;-84
2023/01/03 01:51:48;;;;;;;19.00;9.60;;;2.90;99.90;;;;;;5017501;28;20041;-84
2023/01/03 01:54:14;;;;;;;19.95;8.90;;;2.80;99.90;;;;;;5017171;28;20084;-84
2023/01/03 01:56:48;;;;;;;16.52;8.45;;;2.80;99.90;;;;;;5017630;28;20132;-84
2023/01/03 01:59:14;;;;;;;19.05;10.05;;;2.80;99.90;;;;;;5000789;28;20549;-84
2023/01/03 02:01:43;;;;;;;19.13;9.10;;;2.80;99.90;;;;;;5017505;28;20489;-84
2023/01/03 02:04:18;;;;;;;16.35;8.52;;;2.70;99.90;;;;;;5000519;28;20088;-85
2023/01/03 02:06:44;;;;;;;20.88;9.05;;;2.70;99.90;;;;;;5034689;28;20057;-84
2023/01/03 02:09:10;;;;;;;17.35;9.40;;;3.20;99.90;;;;;;5017138;28;20038;-84
2023/01/03 02:15:28;;;;;;;15.63;8.95;;;2.70;99.90;;;;;;5000379;28;20041;-84
2023/01/03 02:18:36;;;;;;;16.80;8.90;;;2.60;99.90;;;;;;5016958;28;20067;-85
2023/01/03 02:21:15;;;;;;;23.40;8.77;;;2.60;99.90;;;;;;4918115;29;20047;-84
2023/01/03 02:24:11;;;;;;;15.82;8.85;;;2.50;99.90;;;;;;4994068;28;20049;-84
2023/01/03 02:27:15;;;;;;;15.50;8.55;;;2.50;99.90;;;;;;5016626;28;20049;-84
2023/01/03 02:30:18;;;;;;;13.98;8.23;;;2.40;99.90;;;;;;5016538;28;20168;-83
2023/01/03 02:33:07;;;;;;;15.95;8.07;;;2.40;99.90;;;;;;5033742;28;20457;-84
2023/01/03 02:35:41;;;;;;;19.02;9.35;;;2.30;99.90;;;;;;4998802;28;20141;-84
2023/01/03 02:38:20;;;;;;;18.42;8.25;;;2.30;99.90;;;;;;5016948;28;20049;-83
2023/01/03 02:40:55;;;;;;;18.02;9.77;;;2.30;99.90;;;;;;5016602;28;20125;-83
2023/01/03 02:43:49;;;;;;;21.58;10.82;;;2.20;99.90;;;;;;5033941;28;20049;-83
2023/01/03 02:46:24;;;;;;;20.15;10.30;;;2.20;99.90;;;;;;5000560;28;20072;-84
2023/01/03 02:48:55;;;;;;;18.17;10.27;;;2.30;99.90;;;;;;5000321;28;20493;-84
2023/01/03 02:51:39;;;;;;;24.17;11.02;;;2.20;99.90;;;;;;5016454;28;20049;-84
2023/01/03 02:54:10;;;;;;;24.15;11.50;;;2.20;99.90;;;;;;4999669;28;20398;-84
2023/01/03 02:56:54;;;;;;;22.83;11.10;;;2.30;99.90;;;;;;5000218;28;20055;-83
2023/01/03 02:59:28;;;;;;;24.52;11.63;;;2.30;99.90;;;;;;5016114;28;20041;-83
2023/01/03 03:01:54;;;;;;;26.60;12.18;;;2.20;99.90;;;;;;5033829;28;20100;-83
2023/01/03 03:04:21;;;;;;;25.38;11.73;;;2.20;99.90;;;;;;4999519;28;20469;-84
2023/01/03 03:07:18;;;;;;;22.95;11.50;;;2.20;99.90;;;;;;4999674;28;20386;-83
2023/01/03 03:15:21;;;;;;;32.78;12.90;;;2.20;99.90;;;;;;5033144;28;20536;-84
2023/01/03 03:17:50;;;;;;;29.65;12.85;;;2.20;99.90;;;;;;4999933;28;20095;-84
2023/01/03 03:25:55;;;;;;;22.73;12.15;;;2.10;99.90;;;;;;5016596;28;20053;-83
2023/01/03 03:28:33;;;;;;;25.35;12.75;;;2.10;99.90;;;;;;5000152;28;20410;-84
2023/01/03 03:31:18;;;;;;;29.63;12.68;;;2.50;99.90;;;;;;5016287;28;20044;-83
2023/01/03 03:34:05;;;;;;;22.80;11.75;;;2.10;99.90;;;;;;5003629;28;20486;-84
2023/01/03 03:37:04;;;;;;;25.25;12.82;;;2.10;99.90;;;;;;5019667;28;20513;-84
2023/01/03 03:45:45;;;;;;;28.48;12.27;;;2.00;99.90;;;;;;5019817;28;20553;-84
2023/01/03 03:48:18;;;;;;;26.90;12.55;;;1.90;99.90;;;;;;5019535;28;20084;-84
2023/01/03 03:51:13;;;;;;;20.75;11.65;;;1.90;99.90;;;;;;5003125;28;20049;-84
2023/01/03 03:53:42;;;;;;;29.98;12.32;;;1.90;99.90;;;;;;5019345;28;20120;-84
2023/01/03 03:56:20;;;;;;;24.42;11.73;;;1.80;99.90;;;;;;5019462;28;20053;-84
2023/01/03 03:58:51;;;;;;;21.58;10.73;;;1.80;99.90;;;;;;5019275;28;20080;-84
2023/01/03 04:01:21;;;;;;;38.63;14.23;;;1.80;99.90;;;;;;5019388;28;20482;-84
2023/01/03 04:03:49;;;;;;;22.65;12.27;;;1.70;99.90;;;;;;5019215;28;20041;-83
2023/01/03 04:06:29;;;;;;;36.30;12.68;;;1.70;99.90;;;;;;5019405;28;20053;-84
2023/01/03 04:08:55;;;;;;;29.45;13.10;;;1.70;99.90;;;;;;5019266;28;20049;-84
2023/01/03 04:11:21;;;;;;;25.77;11.85;;;1.70;99.90;;;;;;5019209;28;20390;-84
2023/01/03 04:13:46;;;;;;;21.20;12.32;;;1.70;99.90;;;;;;5019004;28;20128;-83
2023/01/03 04:16:12;;;;;;;25.63;12.85;;;1.60;99.90;;;;;;5019377;28;20095;-84
2023/01/03 04:18:37;;;;;;;28.00;13.45;;;1.60;99.90;;;;;;5036912;28;20041;-84
2023/01/03 04:21:03;;;;;;;28.98;12.82;;;3.80;99.90;;;;;;5036535;28;20482;-84
2023/01/03 04:23:29;;;;;;;22.25;12.63;;;1.60;99.90;;;;;;5036685;28;20088;-84
2023/01/03 04:25:54;;;;;;;26.58;12.85;;;1.60;99.90;;;;;;5002485;28;20482;-84
2023/01/03 04:28:20;;;;;;;23.27;12.75;;;1.50;99.90;;;;;;5018955;28;20052;-84
2023/01/03 04:30:46;;;;;;;27.75;12.93;;;1.50;99.90;;;;;;5002374;28;20060;-84
2023/01/03 04:33:11;;;;;;;23.45;12.48;;;1.50;99.90;;;;;;5002451;28;20489;-83
2023/01/03 04:35:37;;;;;;;24.45;12.77;;;1.50;99.90;;;;;;5024723;28;20062;-84
2023/01/03 04:38:04;;;;;;;39.55;15.02;;;1.40;99.90;;;;;;4998760;28;20068;-84
2023/01/03 04:40:30;;;;;;;30.00;13.85;;;1.40;99.90;;;;;;5016435;28;20038;-84
2023/01/03 04:45:40;;;;;;;30.52;13.73;;;1.50;99.90;;;;;;4999257;28;20054;-84
2023/01/03 04:48:06;;;;;;;30.85;13.77;;;1.30;99.90;;;;;;4983067;28;20053;-84
2023/01/03 04:50:32;;;;;;;28.40;13.73;;;1.30;99.90;;;;;;4998395;28;20409;-84
2023/01/03 04:52:57;;;;;;;27.90;14.07;;;2.50;99.90;;;;;;4998732;28;20049;-84
2023/01/03 04:55:23;;;;;;;30.98;14.48;;;1.30;99.90;;;;;;4998751;28;20147;-84
2023/01/03 04:57:49;;;;;;;27.85;13.98;;;1.30;99.90;;;;;;5016124;28;20053;-84
2023/01/03 05:00:15;;;;;;;28.98;13.80;;;1.30;99.90;;;;;;4998320;28;20038;-84
2023/01/03 05:02:40;;;;;;;27.23;12.82;;;1.30;99.90;;;;;;4998225;28;20242;-84
2023/01/03 05:05:06;;;;;;;38.35;16.17;;;1.30;99.90;;;;;;4982145;28;20046;-84
2023/01/03 05:07:32;;;;;;;34.10;16.58;;;1.20;99.90;;;;;;5016101;28;20042;-84
2023/01/03 05:09:57;;;;;;;30.92;14.57;;;1.20;99.90;;;;;;4982371;28;20437;-84
2023/01/03 05:12:23;;;;;;;27.13;14.23;;;1.20;99.90;;;;;;4998347;28;20042;-84
2023/01/03 05:14:49;;;;;;;29.63;15.18;;;1.30;99.90;;;;;;4982252;28;20045;-84
2023/01/03 05:17:18;;;;;;;30.55;15.25;;;1.20;99.90;;;;;;5015579;28;20053;-83
2023/01/03 05:27:57;;;;;;;37.60;17.50;;;1.10;99.90;;;;;;4998333;28;20081;-83
2023/01/03 05:30:23;;;;;;;40.20;17.45;;;1.10;99.90;;;;;;4981951;28;20530;-84
2023/01/03 05:32:49;;;;;;;44.78;18.02;;;1.00;99.90;;;;;;5015317;28;20034;-84
2023/01/03 05:35:15;;;;;;;31.88;15.57;;;1.40;99.90;;;;;;5005380;28;20054;-84
2023/01/03 05:37:40;;;;;;;33.10;15.77;;;1.30;99.90;;;;;;5001369;28;20136;-83
2023/01/03 05:40:07;;;;;;;35.75;17.15;;;1.10;99.90;;;;;;5017659;28;20469;-84
2023/01/03 05:42:32;;;;;;;33.03;16.77;;;1.10;99.90;;;;;;5017588;28;20090;-83
2023/01/03 05:44:58;;;;;;;34.65;18.02;;;1.10;99.90;;;;;;5017321;28;20041;-84
2023/01/03 05:47:24;;;;;;;39.95;19.10;;;1.00;99.90;;;;;;5017197;28;20092;-86
2023/01/03 05:49:50;;;;;;;41.78;18.70;;;1.00;99.90;;;;;;5000391;28;20045;-83
2023/01/03 05:52:16;;;;;;;38.20;18.85;;;1.40;99.90;;;;;;5017343;28;20179;-86
2023/01/03 05:54:42;;;;;;;41.03;20.10;;;1.00;99.90;;;;;;5019704;28;20045;-88
2023/01/03 05:57:07;;;;;;;43.30;20.73;;;2.00;99.90;;;;;;5003900;28;20045;-84
2023/01/03 05:59:33;;;;;;;46.50;19.50;;;1.00;99.90;;;;;;5004288;28;20063;-86
2023/01/03 06:01:58;;;;;;;42.63;20.55;;;1.00;99.90;;;;;;5002929;28;20095;-84
2023/01/03 06:04:24;;;;;;;49.60;20.30;;;1.00;99.90;;;;;;5036563;28;20041;-83
2023/01/03 06:06:50;;;;;;;43.47;18.92;;;0.90;99.90;;;;;;5035694;28;20046;-84
2023/01/03 06:09:15;;;;;;;46.30;19.52;;;1.00;99.90;;;;;;5001586;28;20067;-86
2023/01/03 06:11:41;;;;;;;47.45;20.95;;;1.00;99.90;;;;;;5000898;28;20049;-86
2023/01/03 06:14:07;;;;;;;41.40;20.00;;;1.20;99.90;;;;;;5016952;28;20053;-86
2023/01/03 06:19:17;;;;;;;60.20;21.67;;;0.90;99.90;;;;;;5016809;28;20081;-87
2023/01/03 06:21:43;;;;;;;51.95;21.25;;;1.00;99.90;;;;;;5000727;28;20080;-86
2023/01/03 06:24:09;;;;;;;40.40;19.75;;;0.90;99.90;;;;;;5016455;28;20037;-87
2023/01/03 06:26:35;;;;;;;41.20;19.27;;;0.80;99.90;;;;;;5000786;28;20087;-85
2023/01/03 06:29:01;;;;;;;54.28;21.05;;;1.50;99.90;;;;;;5000436;28;20405;-87
2023/01/03 06:31:26;;;;;;;39.72;21.00;;;0.80;99.90;;;;;;5016388;28;20083;-85
2023/01/03 06:33:52;;;;;;;57.17;20.65;;;0.80;99.90;;;;;;5016669;28;20389;-86
2023/01/03 06:36:20;;;;;;;70.85;22.48;;;1.30;99.90;;;;;;5000019;28;20188;-87
2023/01/03 06:38:46;;;;;;;84.35;25.80;;;0.90;99.90;;;;;;5016670;28;20132;-83
2023/01/03 06:41:13;;;;;;;101.85;24.77;;;1.00;99.90;;;;;;5000387;28;20132;-84
2023/01/03 06:43:39;;;;;;;189.13;29.75;;;1.20;99.90;;;;;;5000284;28;20044;-85
2023/01/03 06:54:29;;;;;;;105.32;23.88;;;1.40;99.90;;;;;;5016447;28;20088;-86
2023/01/03 06:56:55;;;;;;;172.48;26.08;;;1.40;99.90;;;;;;5000397;28;20049;-85
2023/01/03 06:59:21;;;;;;;125.97;24.27;;;1.40;99.90;;;;;;5016196;28;20786;-84
2023/01/03 07:01:48;;;;;;;106.95;23.73;;;1.40;99.90;;;;;;5016165;28;20132;-84
2023/01/03 07:04:14;;;;;;;131.27;24.70;;;1.40;99.90;;;;;;5015998;28;20041;-85
2023/01/03 07:06:40;;;;;;;153.30;25.37;;;1.50;99.90;;;;;;4999457;28;20049;-85
2023/01/03 07:09:07;;;;;;;173.37;25.87;;;1.50;99.90;;;;;;5036599;28;20081;-83
2023/01/03 07:11:34;;;;;;;249.57;32.22;;;1.50;99.90;;;;;;5033911;28;20367;-84
2023/01/03 07:14:00;;;;;;;301.33;35.35;;;1.50;99.90;;;;;;4994630;28;20121;-84
2023/01/03 07:16:31;;;;;;;249.82;31.77;;;1.50;99.90;;;;;;5009384;28;20074;-84
2023/01/03 07:18:58;;;;;;;219.45;28.80;;;1.60;99.90;;;;;;4980105;28;20046;-85
2023/01/03 07:21:26;;;;;;;160.77;23.92;;;1.70;99.90;;;;;;4996014;28;20128;-83
2023/01/03 07:23:54;;;;;;;155.07;23.02;;;1.70;99.90;;;;;;4995650;28;20049;-85
2023/01/03 07:26:20;;;;;;;233.18;31.70;;;1.70;99.90;;;;;;4996622;28;20129;-85
2023/01/03 07:28:46;;;;;;;215.17;28.57;;;1.80;99.90;;;;;;5033304;28;20045;-83
2023/01/03 07:31:12;;;;;;;253.63;27.77;;;1.80;99.90;;;;;;4999628;28;20112;-84
2023/01/03 07:33:38;;;;;;;131.82;24.17;;;1.90;99.90;;;;;;5016171;28;20044;-85
2023/01/03 07:36:08;;;;;;;240.40;28.45;;;2.00;99.90;;;;;;4999391;28;20058;-83
2023/01/03 07:38:34;;;;;;;205.60;28.15;;;2.10;99.90;;;;;;5015649;28;20052;-83
2023/01/03 07:41:01;;;;;;;179.50;31.23;;;2.10;99.90;;;;;;5015898;28;20549;-84
2023/01/03 07:43:36;;;;;;;137.02;27.23;;;2.30;99.90;;;;;;4999421;28;20482;-86
2023/01/03 07:46:06;;;;;;;175.05;32.15;;;2.20;99.90;;;;;;5016297;28;20045;-89
2023/01/03 07:48:32;;;;;;;123.70;25.55;;;2.30;99.90;;;;;;5015588;28;20041;-87
2023/01/03 07:50:58;;;;;;;216.52;29.92;;;2.30;99.90;;;;;;5013749;28;20044;-86
2023/01/03 07:53:23;;;;;;;130.13;26.98;;;2.40;99.90;;;;;;5018681;28;20067;-86
2023/01/03 07:55:49;;;;;;;185.15;30.70;;;2.50;99.90;;;;;;5035220;28;20085;-83
2023/01/03 07:58:15;;;;;;;193.43;32.53;;;2.50;99.90;;;;;;5035087;28;20041;-83
2023/01/03 08:00:41;;;;;;;158.02;30.27;;;3.20;99.90;;;;;;5019053;28;20056;-83
2023/01/03 08:03:07;;;;;;;155.63;29.25;;;2.70;99.90;;;;;;5035036;28;20037;-83
2023/01/03 08:05:34;;;;;;;271.85;36.22;;;2.70;99.90;;;;;;5018853;28;20052;-82
2023/01/03 08:08:01;;;;;;;174.43;33.83;;;2.80;99.90;;;;;;5035353;28;20079;-82
2023/01/03 08:13:16;;;;;;;224.32;36.63;;;2.90;99.90;;;;;;5022023;28;20049;-82
2023/01/03 08:15:49;;;;;;;211.52;35.97;;;3.00;99.90;;;;;;5032193;28;20042;-82
2023/01/03 08:18:18;;;;;;;166.52;33.13;;;3.00;99.90;;;;;;4995963;28;20506;-82
2023/01/03 08:20:45;;;;;;;143.80;32.80;;;3.10;99.90;;;;;;4990002;28;20699;-87
2023/01/03 08:23:11;;;;;;;134.70;32.53;;;3.10;99.90;;;;;;5036338;28;20139;-85
2023/01/03 08:25:37;;;;;;;123.45;31.63;;;3.40;99.90;;;;;;5036320;28;20041;-84
2023/01/03 08:28:03;;;;;;;132.07;31.52;;;3.20;99.90;;;;;;5037906;28;20056;-86
2023/01/03 08:30:29;;;;;;;128.82;31.45;;;3.30;99.90;;;;;;5022058;28;20048;-86
2023/01/03 08:32:56;;;;;;;117.18;31.13;;;;;;;;;;5055558;28;20041;-85
2023/01/03 08:35:25;;;;;;;138.25;32.65;;;3.40;99.90;;;;;;5038619;28;20049;-87
2023/01/03 08:37:52;;;;;;;116.95;31.95;;;3.50;99.90;;;;;;5037808;28;20704;-83
2023/01/03 08:40:17;;;;;;;;;;;3.50;99.90;;;;;;5056490;28;20048;-83
2023/01/03 08:42:44;;;;;;;105.25;31.35;;;3.60;99.90;;;;;;5022251;28;19936;-85
2023/01/03 08:45:14;;;;;;;124.85;31.60;;;3.60;99.90;;;;;;5038486;28;20135;-84
2023/01/03 08:47:41;;;;;;;93.22;29.83;;;3.70;99.90;;;;;;5021312;28;20052;-86
2023/01/03 08:50:08;;;;;;;102.45;31.20;;;3.70;99.90;;;;;;5008597;28;20056;-84
2023/01/03 08:52:34;;;;;;;101.13;31.70;;;3.70;99.90;;;;;;5018452;28;20124;-82
2023/01/03 08:54:59;;;;;;;81.80;28.08;;;3.80;99.90;;;;;;5035934;28;20108;-82
2023/01/03 08:57:25;;;;;;;88.50;28.67;;;4.70;99.90;;;;;;5035814;28;20045;-82
2023/01/03 08:59:51;;;;;;;90.93;30.30;;;3.90;99.90;;;;;;5018273;28;20405;-81
2023/01/03 09:02:16;;;;;;;93.07;30.30;;;3.80;99.90;;;;;;5018193;28;20473;-81
2023/01/03 09:04:42;;;;;;;87.68;29.40;;;4.90;99.90;;;;;;5035689;28;20037;-85
2023/01/03 09:07:07;;;;;;;81.68;28.98;;;3.90;99.90;;;;;;5018345;28;20056;-82
2023/01/03 09:09:33;;;;;;;93.63;31.52;;;3.90;99.90;;;;;;5017965;28;20046;-85
2023/01/03 09:11:58;;;;;;;89.00;29.35;;;4.00;99.90;;;;;;5002334;28;20041;-83
2023/01/03 09:14:24;;;;;;;90.32;30.35;;;4.00;99.90;;;;;;5018295;28;20076;-82
2023/01/03 09:16:50;;;;;;;84.45;27.48;;;4.00;99.90;;;;;;5018124;28;20045;-85
2023/01/03 09:19:16;;;;;;;73.90;27.60;;;4.10;99.90;;;;;;5001827;28;20061;-86
2023/01/03 09:21:41;;;;;;;82.43;28.65;;;4.10;99.90;;;;;;5001784;28;20049;-86
2023/01/03 09:24:07;;;;;;;82.90;30.02;;;4.10;99.90;;;;;;5035195;28;20367;-86
2023/01/03 09:26:33;;;;;;;83.55;29.38;;;4.10;99.90;;;;;;5017728;28;20045;-84
2023/01/03 09:28:58;;;;;;;85.45;30.52;;;4.10;99.90;;;;;;5017331;28;20043;-84
2023/01/03 09:31:24;;;;;;;90.43;31.00;;;4.20;99.90;;;;;;5034875;28;20046;-85
2023/01/03 09:33:49;;;;;;;81.28;30.45;;;4.10;99.90;;;;;;5017499;28;20125;-84
2023/01/03 09:36:15;;;;;;;87.13;30.38;;;4.20;99.90;;;;;;5017480;28;20107;-84
2023/01/03 09:38:41;;;;;;;83.70;29.15;;;4.10;99.90;;;;;;5017802;28;20052;-84
2023/01/03 09:41:10;;;;;;;80.55;29.10;;;4.20;99.90;;;;;;5017734;28;20034;-85
2023/01/03 09:43:46;;;;;;;83.47;30.98;;;4.20;99.90;;;;;;5017304;28;20094;-83
2023/01/03 09:46:21;;;;;;;77.00;29.85;;;4.30;99.90;;;;;;5034912;28;20191;-83
2023/01/03 09:48:49;;;;;;;82.90;28.88;;;4.30;99.90;;;;;;5035358;28;20089;-84
2023/01/03 10:05:37;;;;;;;78.88;29.08;;;4.40;99.90;;;;;;5017302;28;20053;-84
2023/01/03 10:08:05;;;;;;;75.68;29.42;;;4.40;99.90;;;;;;5017201;28;20058;-84
2023/01/03 10:10:39;;;;;;;78.38;28.38;;;4.50;99.90;;;;;;5034239;28;20111;-85
2023/01/03 10:13:32;;;;;;;66.82;27.17;;;4.50;99.90;;;;;;5034532;28;20092;-85
2023/01/03 10:16:21;;;;;;;74.90;28.15;;;4.50;99.90;;;;;;5017326;28;20095;-85
2023/01/03 10:18:52;;;;;;;75.57;29.08;;;4.50;99.90;;;;;;5017221;28;20081;-84
2023/01/03 10:21:59;;;;;;;70.72;28.23;;;4.50;99.90;;;;;;5016477;28;20512;-84
2023/01/03 10:24:29;;;;;;;72.78;30.25;;;4.60;99.90;;;;;;5006356;28;20092;-85
2023/01/03 10:27:18;;;;;;;74.55;30.90;;;4.60;99.90;;;;;;5017226;28;20465;-84
2023/01/03 10:29:46;;;;;;;85.13;31.48;;;4.60;99.90;;;;;;5016760;28;20049;-85
2023/01/03 10:32:34;;;;;;;76.88;30.05;;;4.60;99.90;;;;;;5016588;28;20037;-84
2023/01/03 10:35:22;;;;;;;77.70;29.95;;;4.70;99.90;;;;;;5016322;28;20053;-84
2023/01/03 10:37:53;;;;;;;72.30;30.75;;;4.70;99.90;;;;;;5034029;28;20573;-84
2023/01/03 10:40:19;;;;;;;75.30;31.08;;;4.70;99.90;;;;;;5033590;28;20072;-85
2023/01/03 10:42:46;;;;;;;73.68;28.75;;;4.80;99.90;;;;;;5015998;28;20095;-85
2023/01/03 10:45:20;;;;;;;70.72;31.00;;;4.90;99.90;;;;;;5016423;28;20053;-84
2023/01/03 10:47:58;;;;;;;83.70;31.30;;;4.90;99.90;;;;;;5016923;28;20087;-84
2023/01/03 10:50:25;;;;;;;78.82;31.50;;;4.90;99.90;;;;;;5016664;28;20045;-84
2023/01/03 10:53:06;;;;;;;77.15;30.80;;;5.00;99.90;;;;;;5033691;28;20041;-83
2023/01/03 10:55:34;;;;;;;75.40;32.22;;;5.10;99.90;;;;;;5034312;28;20046;-84
2023/01/03 10:58:15;;;;;;;71.40;30.30;;;5.10;99.90;;;;;;4999891;28;20555;-84
2023/01/03 11:00:42;;;;;;;72.45;30.40;;;5.10;99.90;;;;;;5016008;28;20493;-84
2023/01/03 11:03:15;;;;;;;77.90;29.43;;;5.20;99.90;;;;;;5016162;28;20405;-83
2023/01/03 11:05:44;;;;;;;74.88;31.67;;;6.10;99.90;;;;;;5015958;28;20060;-84
2023/01/03 11:08:19;;;;;;;71.75;31.92;;;5.20;99.90;;;;;;5016726;28;20080;-85
2023/01/03 11:10:53;;;;;;;69.10;31.00;;;5.20;99.90;;;;;;4999963;28;20077;-83
2023/01/03 11:13:39;;;;;;;71.65;31.35;;;5.20;99.90;;;;;;5015879;28;20041;-83
2023/01/03 11:16:17;;;;;;;68.35;30.75;;;5.20;99.90;;;;;;4999642;28;20045;-84
2023/01/03 11:18:57;;;;;;;57.83;28.48;;;5.30;99.90;;;;;;5015858;28;20049;-81
2023/01/03 11:21:40;;;;;;;57.65;28.35;;;5.30;99.90;;;;;;5015977;28;20077;-84
2023/01/03 11:24:23;;;;;;;64.95;28.95;;;5.30;99.90;;;;;;5015992;28;20402;-82
2023/01/03 11:27:17;;;;;;;57.10;26.15;;;5.40;99.90;;;;;;4999881;28;20482;-84
2023/01/03 11:30:05;;;;;;;55.55;26.60;;;5.50;99.90;;;;;;5015898;28;20045;-84
2023/01/03 11:32:50;;;;;;;50.03;24.15;;;5.50;99.90;;;;;;5015878;28;20405;-83
2023/01/03 11:35:18;;;;;;;52.55;26.65;;;5.60;99.90;;;;;;4999228;28;20061;-84
2023/01/03 11:37:54;;;;;;;51.63;23.60;;;5.60;99.90;;;;;;4999690;28;20049;-87
2023/01/03 11:40:29;;;;;;;48.05;23.20;;;5.60;99.90;;;;;;4999981;28;20432;-83
2023/01/03 11:43:16;;;;;;;49.15;22.95;;;5.70;99.90;;;;;;4999455;28;20398;-82
2023/01/03 11:45:50;;;;;;;45.45;22.33;;;5.70;99.90;;;;;;5016489;28;20485;-83
2023/01/03 11:48:52;;;;;;;39.60;20.17;;;5.80;99.90;;;;;;5016013;28;20163;-82
2023/01/03 11:51:36;;;;;;;35.78;20.13;;;5.80;99.90;;;;;;5015575;28;20052;-82
2023/01/03 11:54:28;;;;;;;39.00;19.52;;;5.90;99.90;;;;;;5002869;28;20371;-81
2023/01/03 11:56:56;;;;;;;36.42;19.17;;;6.00;99.90;;;;;;5037277;28;20394;-82
2023/01/03 12:00:12;;;;;;;31.33;18.42;;;5.90;99.90;;;;;;5003045;28;20516;-82
2023/01/03 12:03:02;;;;;;;29.85;16.90;;;6.00;99.90;;;;;;4940820;29;20138;-81
2023/01/03 12:05:45;;;;;;;33.47;16.98;;;6.00;99.90;;;;;;4956303;29;20429;-81
2023/01/03 12:08:11;;;;;;;27.08;15.60;;;6.00;99.90;;;;;;5008805;28;20085;-84
2023/01/03 12:10:57;;;;;;;29.35;16.05;;;6.00;99.90;;;;;;5019035;28;20045;-81
2023/01/03 12:13:29;;;;;;;25.98;15.60;;;6.10;99.90;;;;;;5003020;28;20077;-85
2023/01/03 12:16:04;;;;;;;32.20;17.23;;;6.10;99.90;;;;;;5019409;28;20136;-82
2023/01/03 12:18:42;;;;;;;34.38;15.82;;;6.10;99.90;;;;;;5003007;28;20152;-84
2023/01/03 12:21:14;;;;;;;27.02;15.15;;;6.20;99.90;;;;;;5002767;28;20057;-82
2023/01/03 12:24:15;;;;;;;28.95;15.45;;;6.20;99.90;;;;;;5018825;28;20041;-79
2023/01/03 12:26:46;;;;;;;23.48;14.20;;;6.30;99.90;;;;;;5002499;28;20053;-81
2023/01/03 12:29:25;;;;;;;27.67;14.82;;;6.30;99.90;;;;;;5036643;28;20405;-83
2023/01/03 12:32:00;;;;;;;27.35;15.50;;;6.30;99.90;;;;;;5037171;28;20417;-87
2023/01/03 12:34:49;;;;;;;28.73;15.90;;;6.30;99.90;;;;;;5003684;28;20503;-87
2023/01/03 12:37:29;;;;;;;28.27;15.60;;;6.30;99.90;;;;;;5019068;28;20093;-87
2023/01/03 12:40:09;;;;;;;26.85;14.48;;;6.30;99.90;;;;;;5003943;28;20105;-88
2023/01/03 12:42:38;;;;;;;26.67;14.98;;;6.30;99.90;;;;;;5002617;28;20080;-87
2023/01/03 12:45:08;;;;;;;27.98;14.75;;;6.30;99.90;;;;;;5018735;28;20041;-85
2023/01/03 12:47:53;;;;;;;30.95;15.43;;;6.30;99.90;;;;;;5002274;28;20374;-85
2023/01/03 12:50:21;;;;;;;34.78;14.98;;;6.40;99.90;;;;;;5002303;28;20401;-83
2023/01/03 12:53:20;;;;;;;29.38;15.95;;;6.90;99.90;;;;;;5017931;28;20562;-83
2023/01/03 12:56:03;;;;;;;;;;;6.40;99.90;;;;;;5014843;28;20104;-83
2023/01/03 12:58:46;;;;;;;27.90;15.18;;;6.40;99.90;;;;;;5018444;28;19971;-82
2023/01/03 13:01:33;;;;;;;29.13;15.15;;;6.40;99.90;;;;;;5018021;28;20037;-83
2023/01/03 13:04:07;;;;;;;28.15;14.50;;;6.40;99.90;;;;;;5017117;28;20049;-83
2023/01/03 13:06:38;;;;;;;36.92;16.50;;;6.40;99.90;;;;;;5017831;28;20052;-83
2023/01/03 13:09:15;;;;;;;30.67;15.50;;;6.40;99.90;;;;;;5018168;28;20045;-85
2023/01/03 13:11:53;;;;;;;32.73;14.37;;;7.10;99.90;;;;;;5002057;28;20064;-84
2023/01/03 13:14:24;;;;;;;30.67;15.20;;;6.70;99.90;;;;;;5018106;28;20657;-84
2023/01/03 13:16:55;;;;;;;27.10;14.55;;;6.50;99.90;;;;;;5035908;28;20081;-84
2023/01/03 13:19:21;;;;;;;31.92;14.77;;;6.50;99.90;;;;;;5017335;28;20092;-83
2023/01/03 13:21:52;;;;;;;24.92;14.73;;;6.50;99.90;;;;;;5035512;28;20045;-85
2023/01/03 13:24:43;;;;;;;23.00;13.25;;;6.90;99.90;;;;;;5018344;28;20046;-84
2023/01/03 13:27:26;;;;;;;27.13;13.93;;;6.60;99.90;;;;;;5034273;28;20052;-83
2023/01/03 13:29:58;;;;;;;24.05;12.93;;;6.60;99.90;;;;;;5008892;28;20379;-84
2023/01/03 13:32:26;;;;;;;27.75;13.57;;;6.60;99.90;;;;;;5034070;28;20057;-84
2023/01/03 13:34:58;;;;;;;20.27;13.55;;;6.60;99.90;;;;;;5017780;28;20506;-84
2023/01/03 13:37:42;;;;;;;21.52;12.43;;;6.60;99.90;;;;;;5001441;28;20371;-84
2023/01/03 13:40:32;;;;;;;20.13;12.63;;;6.60;99.90;;;;;;5016589;28;20044;-85
2023/01/03 13:43:07;;;;;;;21.58;12.77;;;6.70;99.90;;;;;;5015657;28;20052;-83
2023/01/03 13:45:32;;;;;;;27.08;13.80;;;7.40;99.90;;;;;;5017353;28;20136;-84
2023/01/03 13:48:14;;;;;;;26.13;14.02;;;6.70;99.90;;;;;;5017132;28;20124;-84
2023/01/03 13:50:39;;;;;;;29.13;13.45;;;6.70;99.90;;;;;;5000606;28;20052;-85
2023/01/03 13:53:25;;;;;;;25.77;13.40;;;6.70;99.90;;;;;;5001054;28;20049;-84
2023/01/03 13:56:20;;;;;;;26.52;13.45;;;6.70;99.90;;;;;;5016616;28;20065;-85
2023/01/03 13:58:50;;;;;;;20.88;12.98;;;6.70;99.90;;;;;;5000982;28;20088;-84
2023/01/03 14:01:40;;;;;;;25.25;13.18;;;6.80;99.90;;;;;;5034469;28;20131;-86
2023/01/03 14:04:40;;;;;;;23.77;12.27;;;6.80;99.90;;;;;;5000629;28;20042;-84